createdAt,value
2017-11-13T00:00:01.746Z,68
2017-11-13T00:00:13.171Z,68.2
2017-11-13T00:00:24.496Z,68.3
2017-11-13T00:00:39.803Z,68.8
2017-11-13T00:00:51.912Z,68.1
2017-11-13T00:01:03.361Z,68
2017-11-13T00:01:14.695Z,67.8
2017-11-13T00:01:25.975Z,68
2017-11-13T00:01:37.363Z,67.7
2017-11-13T00:01:48.773Z,67.9
2017-11-13T00:02:00.076Z,67.9
2017-11-13T00:02:11.480Z,68
2017-11-13T00:02:26.812Z,67.9
2017-11-13T00:02:42.962Z,67.8
2017-11-13T00:02:55.111Z,67.8
2017-11-13T00:03:06.478Z,67.9
2017-11-13T00:03:17.842Z,68
2017-11-13T00:03:33.190Z,67.9
2017-11-13T00:03:45.321Z,68.8
2017-11-13T00:03:56.656Z,68.6
2017-11-13T00:04:08.008Z,68.1
2017-11-13T00:04:23.378Z,67.9
2017-11-13T00:04:35.543Z,68.5
2017-11-13T00:04:46.883Z,68.5
2017-11-13T00:05:02.229Z,68.6
2017-11-13T00:05:14.411Z,68.5
2017-11-13T00:05:25.730Z,68.2
2017-11-13T00:05:37.081Z,68.6
2017-11-13T00:05:52.440Z,68.4
2017-11-13T00:06:14.555Z,68.1
2017-11-13T00:06:25.597Z,68.2
2017-11-13T00:06:36.932Z,68.2
2017-11-13T00:06:52.305Z,68.2
2017-11-13T00:07:04.435Z,68.6
2017-11-13T00:07:15.754Z,68.6
2017-11-13T00:07:27.106Z,68.1
2017-11-13T00:07:38.468Z,68.3
2017-11-13T00:07:49.781Z,68.6
2017-11-13T00:08:01.186Z,68.6
2017-11-13T00:08:16.545Z,68.5
2017-11-13T00:08:28.791Z,68.6
2017-11-13T00:08:44.093Z,68.8
2017-11-13T00:08:56.216Z,68.7
2017-11-13T00:09:07.579Z,68.6
2017-11-13T00:09:18.925Z,68.5
2017-11-13T00:09:30.237Z,68.3
2017-11-13T00:09:41.639Z,68.3
2017-11-13T00:09:57.014Z,68.3
2017-11-13T00:10:09.118Z,68.5
2017-11-13T00:10:20.451Z,68.7
2017-11-13T00:10:31.820Z,68.4
2017-11-13T00:10:43.189Z,68.6
2017-11-13T00:10:58.510Z,68.7
2017-11-13T00:11:14.708Z,68.6
2017-11-13T00:11:26.841Z,68.5
2017-11-13T00:11:42.166Z,68.3
2017-11-13T00:11:54.400Z,68.7
2017-11-13T00:12:05.737Z,69.2
2017-11-13T00:12:17.086Z,69.2
2017-11-13T00:12:28.385Z,68.9
2017-11-13T00:12:39.768Z,69
2017-11-13T00:12:51.206Z,68.8
2017-11-13T00:13:02.534Z,68.8
2017-11-13T00:13:13.744Z,68.7
2017-11-13T00:13:25.153Z,68.7
2017-11-13T00:13:40.456Z,69.2
2017-11-13T00:13:52.702Z,68.7
2017-11-13T00:14:04.026Z,68.8
2017-11-13T00:14:15.396Z,68.9
2017-11-13T00:14:30.737Z,68.8
2017-11-13T00:14:46.929Z,68.7
2017-11-13T00:15:03.027Z,68.7
2017-11-13T00:15:15.177Z,68.8
2017-11-13T00:15:30.540Z,68.8
2017-11-13T00:15:46.717Z,68.7
2017-11-13T00:15:58.855Z,68.7
2017-11-13T00:16:10.200Z,68.7
2017-11-13T00:16:21.550Z,68.7
2017-11-13T00:16:32.859Z,68.6
2017-11-13T00:16:44.326Z,68.6
2017-11-13T00:16:55.618Z,68.7
2017-11-13T00:17:10.974Z,68.5
2017-11-13T00:17:23.146Z,69
2017-11-13T00:17:38.450Z,69
2017-11-13T00:17:54.613Z,68.8
2017-11-13T00:18:10.826Z,68.6
2017-11-13T00:18:22.936Z,68.6
2017-11-13T00:18:38.264Z,68.6
2017-11-13T00:18:50.456Z,68.6
2017-11-13T00:19:01.736Z,68.6
2017-11-13T00:19:17.117Z,68.5
2017-11-13T00:19:29.267Z,68.6
2017-11-13T00:19:40.683Z,68.5
2017-11-13T00:19:55.996Z,68.5
2017-11-13T00:20:08.164Z,68.7
2017-11-13T00:20:23.459Z,69
2017-11-13T00:20:39.638Z,68.5
2017-11-13T00:20:55.893Z,68.7
2017-11-13T00:21:07.963Z,68.6
2017-11-13T00:21:19.293Z,68.7
2017-11-13T00:21:30.644Z,68.6
2017-11-13T00:21:42.028Z,68.8
2017-11-13T00:21:57.403Z,68.6
2017-11-13T00:22:13.522Z,68.7
2017-11-13T00:22:29.692Z,68.9
2017-11-13T00:22:41.830Z,68.4
2017-11-13T00:22:57.159Z,68.6
2017-11-13T00:23:09.377Z,69
2017-11-13T00:23:20.709Z,68.8
2017-11-13T00:23:36.045Z,68.9
2017-11-13T00:23:48.204Z,68.5
2017-11-13T00:23:59.559Z,68.7
2017-11-13T00:24:11.030Z,68.6
2017-11-13T00:24:22.235Z,68.6
2017-11-13T00:24:33.568Z,68.7
2017-11-13T00:24:44.902Z,68.9
2017-11-13T00:24:56.286Z,68.7
2017-11-13T00:25:07.635Z,68.7
2017-11-13T00:25:19.063Z,68.5
2017-11-13T00:25:30.368Z,68.7
2017-11-13T00:25:41.734Z,68.6
2017-11-13T00:25:53.159Z,68.7
2017-11-13T00:26:04.424Z,68.7
2017-11-13T00:26:15.816Z,68.6
2017-11-13T00:26:31.147Z,69
2017-11-13T00:26:43.276Z,68.7
2017-11-13T00:26:54.628Z,68.6
2017-11-13T00:27:05.973Z,68.7
2017-11-13T00:27:17.363Z,68.7
2017-11-13T00:27:32.698Z,68.9
2017-11-13T00:27:44.858Z,68.7
2017-11-13T00:27:56.231Z,68.6
2017-11-13T00:28:07.637Z,68.7
2017-11-13T00:28:18.939Z,68.5
2017-11-13T00:28:34.336Z,68.7
2017-11-13T00:28:46.449Z,69
2017-11-13T00:28:57.782Z,68.9
2017-11-13T00:29:13.144Z,68.9
2017-11-13T00:29:25.278Z,68.5
2017-11-13T00:29:36.629Z,68.9
2017-11-13T00:29:47.957Z,68.7
2017-11-13T00:29:59.339Z,68.6
2017-11-13T00:30:14.666Z,68.8
2017-11-13T00:30:26.889Z,68.8
2017-11-13T00:30:38.199Z,68.5
2017-11-13T00:30:49.579Z,68.5
2017-11-13T00:31:00.926Z,68.7
2017-11-13T00:31:12.357Z,68.9
2017-11-13T00:31:23.626Z,68.9
2017-11-13T00:31:34.965Z,68.9
2017-11-13T00:31:46.357Z,68.3
2017-11-13T00:31:57.697Z,68.5
2017-11-13T00:32:09.064Z,68.7
2017-11-13T00:32:20.413Z,69
2017-11-13T00:32:31.770Z,68.6
2017-11-13T00:32:47.146Z,68.7
2017-11-13T00:33:03.272Z,68.9
2017-11-13T00:33:16.411Z,69
2017-11-13T00:33:32.351Z,68.9
2017-11-13T00:33:44.554Z,68.7
2017-11-13T00:33:55.914Z,69
2017-11-13T00:34:08.193Z,68.8
2017-11-13T00:34:24.170Z,69
2017-11-13T00:34:36.367Z,68.2
2017-11-13T00:34:47.728Z,68.2
2017-11-13T00:34:59.047Z,69.1
2017-11-13T00:35:10.423Z,69
2017-11-13T00:35:21.776Z,69.1
2017-11-13T00:35:33.161Z,68.9
2017-11-13T00:35:44.426Z,68.8
2017-11-13T00:35:59.822Z,69.1
2017-11-13T00:36:11.991Z,68.7
2017-11-13T00:36:23.321Z,68.7
2017-11-13T00:36:34.654Z,68.9
2017-11-13T00:36:46.069Z,68.8
2017-11-13T00:37:01.380Z,68.7
2017-11-13T00:37:13.548Z,68.9
2017-11-13T00:37:24.902Z,68.2
2017-11-13T00:37:36.200Z,68.7
2017-11-13T00:37:47.607Z,68.7
2017-11-13T00:38:02.969Z,69.2
2017-11-13T00:38:15.131Z,69.4
2017-11-13T00:38:26.479Z,69.5
2017-11-13T00:38:37.830Z,69.1
2017-11-13T00:38:49.177Z,69.5
2017-11-13T00:39:00.560Z,69.5
2017-11-13T00:39:15.838Z,68.9
2017-11-13T00:39:28.098Z,69.2
2017-11-13T00:39:39.427Z,69.3
2017-11-13T00:39:54.775Z,68.9
2017-11-13T00:40:06.939Z,68.9
2017-11-13T00:40:22.266Z,68.7
2017-11-13T00:40:34.429Z,69.2
2017-11-13T00:40:45.830Z,68.7
2017-11-13T00:41:01.072Z,69.2
2017-11-13T00:41:13.294Z,69.2
2017-11-13T00:41:24.623Z,68.7
2017-11-13T00:41:36.977Z,68.9
2017-11-13T00:41:52.868Z,68.9
2017-11-13T00:42:05.061Z,69.2
2017-11-13T00:42:16.443Z,68.9
2017-11-13T00:42:31.782Z,69.5
2017-11-13T00:42:47.959Z,68.6
2017-11-13T00:43:04.056Z,68.8
2017-11-13T00:43:20.241Z,68.8
2017-11-13T00:43:36.380Z,68.7
2017-11-13T00:43:48.556Z,68.5
2017-11-13T00:43:59.912Z,69
2017-11-13T00:44:15.211Z,68.7
2017-11-13T00:44:27.460Z,68.8
2017-11-13T00:44:38.860Z,68.7
2017-11-13T00:44:54.100Z,68.6
2017-11-13T00:45:10.273Z,68.6
2017-11-13T00:45:22.429Z,68.9
2017-11-13T00:45:37.760Z,69.7
2017-11-13T00:45:50.933Z,69.3
2017-11-13T00:46:06.857Z,69.5
2017-11-13T00:46:19.026Z,69.5
2017-11-13T00:46:30.422Z,69.5
2017-11-13T00:46:41.721Z,68.9
2017-11-13T00:46:53.138Z,69.3
2017-11-13T00:47:04.472Z,68.5
2017-11-13T00:47:19.814Z,68.7
2017-11-13T00:47:35.953Z,68.8
2017-11-13T00:47:48.063Z,68.8
2017-11-13T00:48:00.514Z,68.8
2017-11-13T00:48:12.430Z,68.9
2017-11-13T00:48:23.696Z,68.6
2017-11-13T00:48:35.148Z,68.7
2017-11-13T00:48:46.449Z,68.8
2017-11-13T00:48:57.816Z,68.2
2017-11-13T00:49:09.192Z,68.9
2017-11-13T00:49:20.543Z,69.1
2017-11-13T00:49:35.889Z,69
2017-11-13T00:49:48.032Z,69
2017-11-13T00:50:03.360Z,69.1
2017-11-13T00:50:15.597Z,69
2017-11-13T00:50:30.879Z,68.7
2017-11-13T00:50:47.023Z,69.1
2017-11-13T00:50:59.226Z,69.3
2017-11-13T00:51:10.539Z,69.1
2017-11-13T00:51:25.865Z,69.3
2017-11-13T00:51:38.036Z,69.2
2017-11-13T00:51:49.370Z,69.1
2017-11-13T00:52:00.784Z,69.5
2017-11-13T00:52:12.092Z,69.1
2017-11-13T00:52:23.450Z,69.2
2017-11-13T00:52:34.865Z,68.9
2017-11-13T00:52:46.152Z,69
2017-11-13T00:52:57.500Z,69.1
2017-11-13T00:53:08.884Z,69.2
2017-11-13T00:53:20.215Z,69.2
2017-11-13T00:53:31.568Z,69.1
2017-11-13T00:53:42.906Z,69.3
2017-11-13T00:53:54.248Z,69.2
2017-11-13T00:54:05.645Z,69.5
2017-11-13T00:54:16.984Z,69.5
2017-11-13T00:54:28.325Z,69.1
2017-11-13T00:54:39.675Z,69.1
2017-11-13T00:54:51.016Z,69.5
2017-11-13T00:55:02.430Z,69.5
2017-11-13T00:55:17.724Z,69.2
2017-11-13T00:55:29.897Z,69.2
2017-11-13T00:55:41.250Z,69.1
2017-11-13T00:55:52.657Z,69.1
2017-11-13T00:56:07.949Z,69.5
2017-11-13T00:56:20.199Z,69.4
2017-11-13T00:56:31.533Z,69.3
2017-11-13T00:56:46.875Z,69.2
2017-11-13T00:57:03.004Z,69.2
2017-11-13T00:57:15.119Z,69.2
2017-11-13T00:57:26.504Z,69.1
2017-11-13T00:57:37.839Z,69.3
2017-11-13T00:57:49.200Z,69.1
2017-11-13T00:58:00.622Z,69.5
2017-11-13T00:58:11.917Z,69.1
2017-11-13T00:58:23.205Z,69.1
2017-11-13T00:58:38.632Z,69.1
2017-11-13T00:58:50.729Z,69.5
2017-11-13T00:59:02.146Z,69.2
2017-11-13T00:59:13.461Z,69.1
2017-11-13T00:59:24.795Z,69.3
2017-11-13T00:59:36.157Z,69.1
2017-11-13T00:59:47.496Z,69.3
2017-11-13T01:00:02.908Z,69.5
2017-11-13T01:00:15.053Z,69
2017-11-13T01:00:26.461Z,69.5
2017-11-13T01:00:41.780Z,69.5
2017-11-13T01:00:57.925Z,68.7
2017-11-13T01:01:14.081Z,69.4
2017-11-13T01:01:30.268Z,69.4
2017-11-13T01:01:42.408Z,69
2017-11-13T01:01:53.851Z,69.1
2017-11-13T01:02:09.060Z,69.1
2017-11-13T01:02:21.266Z,69.3
2017-11-13T01:02:32.650Z,68.7
2017-11-13T01:02:43.945Z,68.9
2017-11-13T01:02:55.261Z,68.9
2017-11-13T01:03:10.622Z,68.7
2017-11-13T01:03:26.765Z,68.7
2017-11-13T01:03:42.986Z,69.2
2017-11-13T01:03:59.073Z,69.3
2017-11-13T01:04:11.264Z,69.5
2017-11-13T01:04:22.662Z,69.1
2017-11-13T01:04:33.922Z,69.3
2017-11-13T01:04:45.343Z,69.5
2017-11-13T01:05:00.634Z,68.9
2017-11-13T01:05:16.799Z,69.5
2017-11-13T01:05:28.973Z,69.2
2017-11-13T01:05:53.901Z,69.5
2017-11-13T01:06:06.120Z,69.3
2017-11-13T01:06:21.456Z,69.1
2017-11-13T01:06:33.602Z,69.2
2017-11-13T01:06:44.898Z,69.4
2017-11-13T01:06:56.333Z,69.5
2017-11-13T01:07:07.607Z,69.1
2017-11-13T01:07:18.923Z,69.3
2017-11-13T01:07:30.292Z,69.2
2017-11-13T01:07:41.705Z,69.5
2017-11-13T01:07:57.025Z,69.5
2017-11-13T01:08:09.253Z,68.9
2017-11-13T01:08:20.562Z,69.4
2017-11-13T01:08:31.960Z,69.3
2017-11-13T01:08:43.321Z,69.1
2017-11-13T01:08:54.615Z,69.1
2017-11-13T01:09:06.022Z,69.2
2017-11-13T01:09:27.277Z,69.2
2017-11-13T01:09:38.231Z,69.2
2017-11-13T01:09:49.593Z,69.2
2017-11-13T01:10:00.940Z,69.1
2017-11-13T01:10:12.312Z,69.3
2017-11-13T01:10:23.640Z,69.2
2017-11-13T01:10:39.018Z,69.2
2017-11-13T01:10:55.267Z,68.9
2017-11-13T01:11:11.343Z,69.4
2017-11-13T01:11:23.458Z,69.2
2017-11-13T01:11:34.843Z,69.1
2017-11-13T01:11:46.198Z,69.1
2017-11-13T01:11:57.569Z,69.2
2017-11-13T01:12:08.848Z,69.2
2017-11-13T01:12:20.257Z,69.4
2017-11-13T01:12:31.589Z,69.1
2017-11-13T01:12:42.925Z,69.3
2017-11-13T01:12:54.315Z,68.9
2017-11-13T01:13:05.625Z,69.2
2017-11-13T01:13:17.040Z,69
2017-11-13T01:13:32.368Z,69.2
2017-11-13T01:13:44.521Z,69.5
2017-11-13T01:13:55.907Z,69.5
2017-11-13T01:14:07.284Z,69.2
2017-11-13T01:14:22.660Z,68.7
2017-11-13T01:14:34.746Z,69.6
2017-11-13T01:14:46.075Z,69.7
2017-11-13T01:15:02.151Z,69.3
2017-11-13T01:15:13.580Z,69.5
2017-11-13T01:15:24.951Z,69.3
2017-11-13T01:15:36.256Z,69.3
2017-11-13T01:15:47.687Z,69.2
2017-11-13T01:16:02.981Z,69.3
2017-11-13T01:16:19.159Z,69.3
2017-11-13T01:16:31.290Z,69.4
2017-11-13T01:16:42.664Z,69.3
2017-11-13T01:16:54.034Z,69.2
2017-11-13T01:17:05.387Z,69.1
2017-11-13T01:17:16.824Z,69.5
2017-11-13T01:17:32.092Z,69.4
2017-11-13T01:17:44.252Z,69.3
2017-11-13T01:17:55.602Z,69.5
2017-11-13T01:18:06.927Z,69.4
2017-11-13T01:18:22.293Z,69.4
2017-11-13T01:18:38.438Z,69.3
2017-11-13T01:18:50.607Z,69.3
2017-11-13T01:19:05.982Z,69.2
2017-11-13T01:19:22.123Z,69.7
2017-11-13T01:19:34.253Z,69.8
2017-11-13T01:19:45.633Z,69.7
2017-11-13T01:19:56.999Z,69.7
2017-11-13T01:20:12.295Z,69.5
2017-11-13T01:20:24.473Z,69.2
2017-11-13T01:20:35.873Z,69.4
2017-11-13T01:20:47.268Z,69.2
2017-11-13T01:20:58.564Z,69.2
2017-11-13T01:21:09.890Z,69.5
2017-11-13T01:21:21.253Z,69.5
2017-11-13T01:21:36.579Z,69.6
2017-11-13T01:21:52.774Z,68.9
2017-11-13T01:22:04.900Z,69
2017-11-13T01:22:20.234Z,69
2017-11-13T01:22:36.385Z,69
2017-11-13T01:22:48.570Z,69
2017-11-13T01:22:59.955Z,69.2
2017-11-13T01:23:11.279Z,69.2
2017-11-13T01:23:26.633Z,69.2
2017-11-13T01:23:38.790Z,69.5
2017-11-13T01:23:54.100Z,69.5
2017-11-13T01:24:06.275Z,69.7
2017-11-13T01:24:21.610Z,69.3
2017-11-13T01:24:33.836Z,69.3
2017-11-13T01:24:45.163Z,69.1
2017-11-13T01:24:56.444Z,69.3
2017-11-13T01:25:07.864Z,69.4
2017-11-13T01:25:19.238Z,69.1
2017-11-13T01:25:30.597Z,69.1
2017-11-13T01:25:41.989Z,69.2
2017-11-13T01:25:57.281Z,69.2
2017-11-13T01:26:09.415Z,69.2
2017-11-13T01:26:20.831Z,69.5
2017-11-13T01:26:32.148Z,69.2
2017-11-13T01:26:47.501Z,69
2017-11-13T01:26:59.650Z,69.7
2017-11-13T01:27:11.057Z,69.8
2017-11-13T01:27:22.320Z,69.2
2017-11-13T01:27:33.719Z,69
2017-11-13T01:27:45.012Z,69.1
2017-11-13T01:28:00.434Z,69.8
2017-11-13T01:28:12.557Z,69.8
2017-11-13T01:28:23.912Z,69.3
2017-11-13T01:28:35.261Z,69.5
2017-11-13T01:28:46.607Z,68.9
2017-11-13T01:28:57.959Z,69.1
2017-11-13T01:29:13.301Z,69.8
2017-11-13T01:29:25.535Z,69.3
2017-11-13T01:29:40.847Z,69.8
2017-11-13T01:29:53.033Z,69.1
2017-11-13T01:30:04.365Z,69.2
2017-11-13T01:30:15.702Z,69.2
2017-11-13T01:30:27.030Z,69.3
2017-11-13T01:30:38.398Z,69.2
2017-11-13T01:30:53.758Z,69.5
2017-11-13T01:31:05.906Z,69
2017-11-13T01:31:17.255Z,68.9
2017-11-13T01:31:28.571Z,69.6
2017-11-13T01:31:39.992Z,69.3
2017-11-13T01:31:51.306Z,69.9
2017-11-13T01:32:06.621Z,69.8
2017-11-13T01:32:18.805Z,69.8
2017-11-13T01:32:30.148Z,69.8
2017-11-13T01:32:41.481Z,69.7
2017-11-13T01:32:52.882Z,69.8
2017-11-13T01:33:08.189Z,69.8
2017-11-13T01:33:20.376Z,69.7
2017-11-13T01:33:35.704Z,69.7
2017-11-13T01:33:47.888Z,70
2017-11-13T01:33:59.284Z,69.8
2017-11-13T01:34:10.581Z,70.2
2017-11-13T01:34:21.916Z,70.1
2017-11-13T01:34:33.342Z,69.9
2017-11-13T01:34:44.692Z,69.7
2017-11-13T01:34:56.036Z,69.8
2017-11-13T01:35:11.366Z,69.8
2017-11-13T01:35:23.530Z,69.3
2017-11-13T01:35:34.823Z,69.9
2017-11-13T01:35:46.279Z,69.8
2017-11-13T01:35:57.525Z,69.8
2017-11-13T01:36:13.012Z,70
2017-11-13T01:36:29.081Z,70
2017-11-13T01:36:41.255Z,69.6
2017-11-13T01:36:52.576Z,69.8
2017-11-13T01:37:07.968Z,69.7
2017-11-13T01:37:20.067Z,69.8
2017-11-13T01:37:31.412Z,69.5
2017-11-13T01:37:42.827Z,69.7
2017-11-13T01:37:58.259Z,70
2017-11-13T01:38:14.267Z,69.5
2017-11-13T01:38:26.401Z,69.8
2017-11-13T01:38:37.820Z,69.5
2017-11-13T01:38:49.140Z,69.7
2017-11-13T01:39:00.527Z,69.8
2017-11-13T01:39:11.857Z,69.8
2017-11-13T01:39:23.184Z,69.8
2017-11-13T01:39:34.557Z,69.7
2017-11-13T01:39:55.987Z,69.9
2017-11-13T01:40:06.942Z,69.8
2017-11-13T01:40:18.214Z,70.1
2017-11-13T01:40:29.613Z,69.7
2017-11-13T01:40:40.940Z,69.6
2017-11-13T01:40:52.306Z,69.6
2017-11-13T01:41:03.625Z,69.8
2017-11-13T01:41:15.053Z,69.6
2017-11-13T01:41:30.327Z,69.6
2017-11-13T01:41:42.498Z,69.8
2017-11-13T01:41:53.866Z,69.6
2017-11-13T01:42:05.187Z,69
2017-11-13T01:42:16.598Z,69.2
2017-11-13T01:42:31.934Z,69.1
2017-11-13T01:42:44.038Z,69.2
2017-11-13T01:42:59.460Z,69.3
2017-11-13T01:43:11.597Z,69.5
2017-11-13T01:43:26.929Z,69.5
2017-11-13T01:43:43.067Z,69.4
2017-11-13T01:43:55.226Z,69.2
2017-11-13T01:44:10.555Z,69.1
2017-11-13T01:44:22.720Z,69.3
2017-11-13T01:44:34.056Z,69.5
2017-11-13T01:44:49.446Z,69.4
2017-11-13T01:45:01.591Z,69.4
2017-11-13T01:45:12.951Z,69.3
2017-11-13T01:45:24.292Z,69.2
2017-11-13T01:45:35.692Z,69.3
2017-11-13T01:45:47.070Z,69.5
2017-11-13T01:46:02.376Z,69.3
2017-11-13T01:46:18.498Z,69.2
2017-11-13T01:46:30.730Z,69.6
2017-11-13T01:46:42.036Z,69.2
2017-11-13T01:46:53.385Z,69
2017-11-13T01:47:04.761Z,69.2
2017-11-13T01:47:16.108Z,69.8
2017-11-13T01:47:27.469Z,69.6
2017-11-13T01:47:38.774Z,69.8
2017-11-13T01:47:50.129Z,69.7
2017-11-13T01:48:01.764Z,69.3
2017-11-13T01:48:12.883Z,69.6
2017-11-13T01:48:24.210Z,69.3
2017-11-13T01:48:35.589Z,69.3
2017-11-13T01:48:46.957Z,69.2
2017-11-13T01:49:02.277Z,69.3
2017-11-13T01:49:14.452Z,69.5
2017-11-13T01:49:25.920Z,69.4
2017-11-13T01:49:37.134Z,69.1
2017-11-13T01:49:48.456Z,69.3
2017-11-13T01:49:59.810Z,69.4
2017-11-13T01:50:11.189Z,69
2017-11-13T01:50:22.548Z,69.2
2017-11-13T01:50:33.956Z,69.5
2017-11-13T01:50:45.233Z,69.3
2017-11-13T01:50:56.638Z,69.3
2017-11-13T01:51:11.928Z,69.2
2017-11-13T01:51:24.116Z,69.1
2017-11-13T01:51:39.498Z,69.4
2017-11-13T01:51:51.607Z,69.2
2017-11-13T01:52:02.968Z,69.3
2017-11-13T01:52:15.333Z,69.5
2017-11-13T01:52:27.247Z,69.4
2017-11-13T01:52:38.610Z,69.5
2017-11-13T01:52:50.005Z,69
2017-11-13T01:53:01.325Z,69.1
2017-11-13T01:53:12.643Z,69.1
2017-11-13T01:53:24.031Z,69.1
2017-11-13T01:53:39.419Z,69.2
2017-11-13T01:53:56.040Z,69.3
2017-11-13T01:54:07.681Z,69.2
2017-11-13T01:54:19.103Z,69.3
2017-11-13T01:54:34.394Z,68.9
2017-11-13T01:54:46.538Z,69.4
2017-11-13T01:54:57.876Z,69.2
2017-11-13T01:55:09.304Z,69.2
2017-11-13T01:55:20.681Z,69.3
2017-11-13T01:55:31.946Z,69.2
2017-11-13T01:55:47.297Z,69.2
2017-11-13T01:55:59.495Z,69.2
2017-11-13T01:56:10.821Z,69.5
2017-11-13T01:56:26.188Z,69.2
2017-11-13T01:56:38.302Z,69.4
2017-11-13T01:56:53.733Z,69.2
2017-11-13T01:57:05.904Z,69.3
2017-11-13T01:57:21.181Z,69.1
2017-11-13T01:57:37.342Z,69.3
2017-11-13T01:57:49.500Z,69.5
2017-11-13T01:58:00.913Z,68.8
2017-11-13T01:58:16.225Z,69.3
2017-11-13T01:58:28.347Z,69.3
2017-11-13T01:58:43.753Z,69.7
2017-11-13T01:58:55.855Z,69.3
2017-11-13T01:59:07.255Z,69.1
2017-11-13T01:59:22.592Z,69.2
2017-11-13T01:59:34.879Z,69.4
2017-11-13T01:59:50.065Z,69.2
2017-11-13T02:00:02.246Z,69.2
2017-11-13T02:00:13.590Z,68.9
2017-11-13T02:00:28.920Z,69.7
2017-11-13T02:00:41.099Z,69.6
2017-11-13T02:00:52.485Z,69.4
2017-11-13T02:01:03.790Z,69.8
2017-11-13T02:01:15.133Z,69.9
2017-11-13T02:01:30.497Z,69.9
2017-11-13T02:01:46.744Z,69.7
2017-11-13T02:01:58.853Z,70
2017-11-13T02:02:14.172Z,69.7
2017-11-13T02:02:30.346Z,69.8
2017-11-13T02:02:46.427Z,69.7
2017-11-13T02:02:58.663Z,70
2017-11-13T02:03:09.962Z,70.3
2017-11-13T02:03:21.333Z,70.2
2017-11-13T02:03:32.667Z,70.2
2017-11-13T02:03:44.045Z,70.4
2017-11-13T02:03:55.388Z,70.5
2017-11-13T02:04:10.744Z,70.2
2017-11-13T02:04:22.891Z,70.3
2017-11-13T02:04:34.222Z,70.3
2017-11-13T02:04:45.544Z,70
2017-11-13T02:04:56.958Z,70.6
2017-11-13T02:05:12.280Z,70.7
2017-11-13T02:05:24.450Z,70.4
2017-11-13T02:05:35.801Z,70.3
2017-11-13T02:05:48.136Z,70.2
2017-11-13T02:06:00.087Z,70.5
2017-11-13T02:06:11.465Z,70.6
2017-11-13T02:06:26.792Z,70.3
2017-11-13T02:06:39.048Z,70.1
2017-11-13T02:06:50.278Z,70.3
2017-11-13T02:07:01.660Z,70.2
2017-11-13T02:07:12.992Z,70.3
2017-11-13T02:07:24.417Z,69.7
2017-11-13T02:07:35.735Z,70
2017-11-13T02:07:51.147Z,70.7
2017-11-13T02:08:03.184Z,70
2017-11-13T02:08:18.670Z,69.9
2017-11-13T02:08:30.788Z,70
2017-11-13T02:08:46.108Z,69.8
2017-11-13T02:08:58.270Z,69.8
2017-11-13T02:09:09.619Z,69.6
2017-11-13T02:09:25.006Z,69.7
2017-11-13T02:09:37.204Z,70.2
2017-11-13T02:09:48.489Z,69.6
2017-11-13T02:09:59.835Z,69.8
2017-11-13T02:10:11.177Z,69.8
2017-11-13T02:10:22.519Z,69.9
2017-11-13T02:10:34.467Z,70
2017-11-13T02:10:45.202Z,69.7
2017-11-13T02:11:00.628Z,70
2017-11-13T02:11:16.759Z,70.1
2017-11-13T02:11:28.874Z,70.8
2017-11-13T02:11:44.219Z,70.2
2017-11-13T02:11:56.473Z,70.5
2017-11-13T02:12:11.793Z,70
2017-11-13T02:12:23.912Z,70.1
2017-11-13T02:12:39.258Z,70.3
2017-11-13T02:12:51.409Z,70.3
2017-11-13T02:13:06.764Z,70.3
2017-11-13T02:13:18.986Z,70.3
2017-11-13T02:13:30.269Z,69.9
2017-11-13T02:13:45.629Z,69.6
2017-11-13T02:13:57.894Z,69.6
2017-11-13T02:14:13.111Z,69.9
2017-11-13T02:14:25.315Z,69.9
2017-11-13T02:14:36.678Z,70
2017-11-13T02:14:47.964Z,70.3
2017-11-13T02:15:03.348Z,70
2017-11-13T02:15:19.556Z,70.3
2017-11-13T02:15:32.664Z,70.1
2017-11-13T02:15:48.579Z,70.2
2017-11-13T02:16:00.786Z,70.3
2017-11-13T02:16:12.142Z,70.3
2017-11-13T02:16:27.490Z,70.2
2017-11-13T02:16:39.673Z,70.3
2017-11-13T02:16:50.972Z,70.2
2017-11-13T02:17:02.345Z,70.3
2017-11-13T02:17:13.705Z,70.2
2017-11-13T02:17:25.013Z,70.3
2017-11-13T02:17:40.369Z,70
2017-11-13T02:17:52.571Z,70.3
2017-11-13T02:18:07.950Z,70.3
2017-11-13T02:18:24.027Z,70
2017-11-13T02:18:36.191Z,70.3
2017-11-13T02:18:47.568Z,70.3
2017-11-13T02:18:58.946Z,70
2017-11-13T02:19:14.254Z,70.3
2017-11-13T02:19:26.401Z,70.5
2017-11-13T02:19:37.808Z,70.1
2017-11-13T02:19:53.169Z,70.3
2017-11-13T02:20:05.292Z,70.1
2017-11-13T02:20:20.628Z,69.8
2017-11-13T02:20:36.776Z,69.8
2017-11-13T02:20:48.957Z,69.6
2017-11-13T02:21:04.294Z,69.9
2017-11-13T02:21:16.501Z,69.8
2017-11-13T02:21:31.810Z,69.8
2017-11-13T02:21:43.987Z,70
2017-11-13T02:21:55.328Z,70.1
2017-11-13T02:22:06.654Z,69.8
2017-11-13T02:22:18.017Z,69.8
2017-11-13T02:22:33.369Z,70.5
2017-11-13T02:22:49.473Z,70.3
2017-11-13T02:23:01.709Z,70.3
2017-11-13T02:23:13.042Z,70.7
2017-11-13T02:23:28.378Z,70.2
2017-11-13T02:23:40.573Z,70.5
2017-11-13T02:23:55.997Z,70.7
2017-11-13T02:24:08.025Z,70.6
2017-11-13T02:24:19.508Z,70.5
2017-11-13T02:24:34.754Z,69.9
2017-11-13T02:24:46.940Z,70.1
2017-11-13T02:24:59.258Z,69.8
2017-11-13T02:25:15.183Z,70.1
2017-11-13T02:25:27.350Z,70.6
2017-11-13T02:25:38.695Z,70.3
2017-11-13T02:25:50.165Z,70.3
2017-11-13T02:26:01.466Z,70.6
2017-11-13T02:26:12.844Z,70
2017-11-13T02:26:24.113Z,69.8
2017-11-13T02:26:35.456Z,69.6
2017-11-13T02:26:46.830Z,69.8
2017-11-13T02:27:02.194Z,69.8
2017-11-13T02:27:18.440Z,69.7
2017-11-13T02:27:34.482Z,69.8
2017-11-13T02:27:46.657Z,69.7
2017-11-13T02:27:58.034Z,69.8
2017-11-13T02:28:09.346Z,69.9
2017-11-13T02:28:20.664Z,69.7
2017-11-13T02:28:32.065Z,69.9
2017-11-13T02:28:43.388Z,69.8
2017-11-13T02:28:54.795Z,69.7
2017-11-13T02:29:06.093Z,69.7
2017-11-13T02:29:17.500Z,69.8
2017-11-13T02:29:32.804Z,69.8
2017-11-13T02:29:45.027Z,69.9
2017-11-13T02:29:56.330Z,69.7
2017-11-13T02:30:07.724Z,69.9
2017-11-13T02:30:19.096Z,69.9
2017-11-13T02:30:30.441Z,69.6
2017-11-13T02:30:45.752Z,69.7
2017-11-13T02:30:57.927Z,69.7
2017-11-13T02:31:09.282Z,70.1
2017-11-13T02:31:20.685Z,69.9
2017-11-13T02:31:31.948Z,70.2
2017-11-13T02:31:43.374Z,69.9
2017-11-13T02:31:58.696Z,70.7
2017-11-13T02:32:10.792Z,70.3
2017-11-13T02:32:23.830Z,70.1
2017-11-13T02:32:35.163Z,70.3
2017-11-13T02:32:46.532Z,70.3
2017-11-13T02:32:57.852Z,70.3
2017-11-13T02:33:09.193Z,70.3
2017-11-13T02:33:24.540Z,70.8
2017-11-13T02:33:36.673Z,70.8
2017-11-13T02:33:48.043Z,70.7
2017-11-13T02:34:03.418Z,70.6
2017-11-13T02:34:15.579Z,70.5
2017-11-13T02:34:26.905Z,70.5
2017-11-13T02:34:38.278Z,70.8
2017-11-13T02:34:49.654Z,70.5
2017-11-13T02:35:04.959Z,70.5
2017-11-13T02:35:17.163Z,70.5
2017-11-13T02:35:32.488Z,70.6
2017-11-13T02:35:44.606Z,70.6
2017-11-13T02:35:55.984Z,70.8
2017-11-13T02:36:07.343Z,70.7
2017-11-13T02:36:18.754Z,70.6
2017-11-13T02:36:34.118Z,70.5
2017-11-13T02:36:50.208Z,70.6
2017-11-13T02:37:06.360Z,70.3
2017-11-13T02:37:18.518Z,70.5
2017-11-13T02:37:29.860Z,70.4
2017-11-13T02:37:45.340Z,70.5
2017-11-13T02:37:57.407Z,70.3
2017-11-13T02:38:08.748Z,70.6
2017-11-13T02:38:20.093Z,70.5
2017-11-13T02:38:31.420Z,70.5
2017-11-13T02:38:46.809Z,70.5
2017-11-13T02:38:59.000Z,70.1
2017-11-13T02:39:14.330Z,70.4
2017-11-13T02:39:26.437Z,70.2
2017-11-13T02:39:41.830Z,70.1
2017-11-13T02:39:57.980Z,70.3
2017-11-13T02:40:14.108Z,70.4
2017-11-13T02:40:30.216Z,70.3
2017-11-13T02:40:42.439Z,70.2
2017-11-13T02:40:53.778Z,70.2
2017-11-13T02:41:05.154Z,70.3
2017-11-13T02:41:20.485Z,69.8
2017-11-13T02:41:36.632Z,69.6
2017-11-13T02:41:52.826Z,70
2017-11-13T02:42:05.591Z,70.1
2017-11-13T02:42:21.883Z,70.5
2017-11-13T02:42:34.005Z,69.9
2017-11-13T02:42:45.435Z,70.2
2017-11-13T02:42:56.778Z,70.7
2017-11-13T02:43:12.122Z,69.8
2017-11-13T02:43:24.301Z,69.6
2017-11-13T02:43:39.686Z,69.6
2017-11-13T02:43:55.762Z,69.9
2017-11-13T02:44:11.932Z,69.5
2017-11-13T02:44:24.100Z,69.8
2017-11-13T02:44:39.466Z,69.7
2017-11-13T02:44:55.577Z,69.9
2017-11-13T02:45:07.735Z,69.9
2017-11-13T02:45:19.093Z,69.8
2017-11-13T02:45:34.430Z,69.6
2017-11-13T02:45:46.673Z,70
2017-11-13T02:46:01.931Z,69.8
2017-11-13T02:46:14.152Z,69.5
2017-11-13T02:46:25.469Z,69.9
2017-11-13T02:46:40.814Z,70
2017-11-13T02:46:52.971Z,69.7
2017-11-13T02:47:08.259Z,69.5
2017-11-13T02:47:20.415Z,69.8
2017-11-13T02:47:31.852Z,69.8
2017-11-13T02:47:47.159Z,69.8
2017-11-13T02:47:59.315Z,69.8
2017-11-13T02:48:14.700Z,69.4
2017-11-13T02:48:26.813Z,69.6
2017-11-13T02:48:42.190Z,69.7
2017-11-13T02:48:54.352Z,70
2017-11-13T02:49:05.691Z,69.8
2017-11-13T02:49:21.050Z,69.7
2017-11-13T02:49:33.253Z,69.7
2017-11-13T02:49:44.523Z,69.8
2017-11-13T02:49:55.927Z,69.7
2017-11-13T02:50:07.294Z,69.8
2017-11-13T02:50:18.661Z,69.7
2017-11-13T02:50:33.955Z,69.8
2017-11-13T02:50:46.162Z,69.9
2017-11-13T02:50:57.472Z,70